createdAt,value
2023-02-19T00:01:17.066Z,118.99
2023-02-19T00:03:49.436Z,118.99
2023-02-19T00:06:16.326Z,118.99
2023-02-19T00:08:43.045Z,118.99
2023-02-19T00:11:13.290Z,118.99
2023-02-19T00:13:42.403Z,118.99
2023-02-19T00:16:10.439Z,118.99
2023-02-19T00:18:37.145Z,118.99
2023-02-19T00:21:04.483Z,118.99
2023-02-19T00:23:32.104Z,118.99
2023-02-19T00:26:17.688Z,118.99
2023-02-19T00:28:46.761Z,118.99
2023-02-19T00:31:25.008Z,118.99
2023-02-19T00:33:53.355Z,118.99
2023-02-19T00:36:20.473Z,118.99
2023-02-19T00:38:47.707Z,118.99
2023-02-19T00:41:19.294Z,118.99
2023-02-19T00:43:59.275Z,118.99
2023-02-19T00:46:33.848Z,118.99
2023-02-19T00:49:01.142Z,118.99
2023-02-19T00:51:34.223Z,118.99
2023-02-19T00:54:01.048Z,118.99
2023-02-19T00:56:28.116Z,118.99
2023-02-19T00:58:55.840Z,118.99
2023-02-19T01:01:22.634Z,118.99
2023-02-19T01:03:49.525Z,118.99
2023-02-19T01:06:18.049Z,118.99
2023-02-19T01:08:45.484Z,118.99
2023-02-19T01:11:13.171Z,118.99
2023-02-19T01:13:40.889Z,118.99
2023-02-19T01:16:14.144Z,118.99
2023-02-19T01:18:41.436Z,118.99
2023-02-19T01:21:18.313Z,118.99
2023-02-19T01:23:45.811Z,118.99
2023-02-19T01:26:15.546Z,118.99
2023-02-19T01:28:43.058Z,118.99
2023-02-19T01:31:14.597Z,118.99
2023-02-19T01:33:46.134Z,118.99
2023-02-19T01:36:14.105Z,118.99
2023-02-19T01:38:41.225Z,118.99
2023-02-19T01:41:11.852Z,118.99
2023-02-19T01:44:09.185Z,118.99
2023-02-19T01:46:37.171Z,118.99
2023-02-19T01:49:14.929Z,118.99
2023-02-19T01:51:48.703Z,118.99
2023-02-19T01:54:20.444Z,118.99
2023-02-19T01:56:48.777Z,118.99
2023-02-19T01:59:18.233Z,118.99
2023-02-19T02:01:45.673Z,118.99
2023-02-19T02:04:14.445Z,118.99
2023-02-19T02:06:51.240Z,118.99
2023-02-19T02:09:43.157Z,118.99
2023-02-19T02:12:09.912Z,118.99
2023-02-19T02:14:41.154Z,118.99
2023-02-19T02:17:28.979Z,118.99
2023-02-19T02:20:14.443Z,118.99
2023-02-19T02:22:47.209Z,118.99
2023-02-19T02:25:19.817Z,118.99
2023-02-19T02:28:07.038Z,118.99
2023-02-19T02:30:44.881Z,118.99
2023-02-19T02:33:28.912Z,118.99
2023-02-19T02:36:07.547Z,118.99
2023-02-19T02:38:38.260Z,118.99
2023-02-19T02:41:06.397Z,118.99
2023-02-19T02:43:33.417Z,118.99
2023-02-19T02:46:00.364Z,118.99
2023-02-19T02:48:39.766Z,118.99
2023-02-19T02:51:10.328Z,118.99
2023-02-19T02:54:01.872Z,118.99
2023-02-19T02:56:30.622Z,118.99
2023-02-19T02:58:58.987Z,118.99
2023-02-19T03:01:51.610Z,118.99
2023-02-19T03:05:07.564Z,118.99
2023-02-19T03:07:39.412Z,118.99
2023-02-19T03:10:10.068Z,118.99
2023-02-19T03:12:57.859Z,118.99
2023-02-19T03:15:48.613Z,118.99
2023-02-19T03:18:36.963Z,118.99
2023-02-19T03:21:06.278Z,118.99
2023-02-19T03:23:54.004Z,118.99
2023-02-19T03:26:21.814Z,118.99
2023-02-19T03:29:11.414Z,118.99
2023-02-19T03:31:39.774Z,118.99
2023-02-19T03:34:12.342Z,118.99
2023-02-19T03:36:53.785Z,118.99
2023-02-19T03:39:22.928Z,118.99
2023-02-19T03:41:55.685Z,118.99
2023-02-19T03:44:44.863Z,118.99
2023-02-19T03:47:23.789Z,118.99
2023-02-19T03:50:19.613Z,118.99
2023-02-19T03:53:12.049Z,118.99
2023-02-19T03:55:54.072Z,118.99
2023-02-19T03:58:38.361Z,118.99
2023-02-19T04:01:15.077Z,118.99
2023-02-19T04:04:16.099Z,118.99
2023-02-19T04:06:46.812Z,118.99
2023-02-19T04:09:14.948Z,118.99
2023-02-19T04:11:44.731Z,118.99
2023-02-19T04:14:31.636Z,118.99
2023-02-19T04:17:04.975Z,118.99
2023-02-19T04:19:36.527Z,118.82
2023-02-19T04:22:06.163Z,118.99
2023-02-19T04:24:46.229Z,118.99
2023-02-19T04:27:12.996Z,118.99
2023-02-19T04:29:39.795Z,118.78
2023-02-19T04:32:07.087Z,118.67
2023-02-19T04:34:33.767Z,118.99
2023-02-19T04:37:00.468Z,118.99
2023-02-19T04:39:27.361Z,118.90
2023-02-19T04:41:54.010Z,118.68
2023-02-19T04:44:20.990Z,118.63
2023-02-19T04:46:47.735Z,118.73
2023-02-19T04:49:14.594Z,118.78
2023-02-19T04:51:42.064Z,118.60
2023-02-19T04:54:08.773Z,118.99
2023-02-19T04:56:35.590Z,118.63
2023-02-19T04:59:02.293Z,118.92
2023-02-19T05:01:29.132Z,118.59
2023-02-19T05:03:55.849Z,118.40
2023-02-19T05:06:23.570Z,118.96
2023-02-19T05:08:50.374Z,118.74
2023-02-19T05:11:17.628Z,118.54
2023-02-19T05:13:44.416Z,118.35
2023-02-19T05:16:16.064Z,118.24
2023-02-19T05:18:44.324Z,118.81
2023-02-19T05:21:11.990Z,118.99
2023-02-19T05:23:38.980Z,118.99
2023-02-19T05:26:10.122Z,118.97
2023-02-19T05:28:36.959Z,118.99
2023-02-19T05:31:07.402Z,118.99
2023-02-19T05:33:34.619Z,118.99
2023-02-19T05:36:08.758Z,118.27
2023-02-19T05:38:36.455Z,118.17
2023-02-19T05:41:16.583Z,118.24
2023-02-19T05:43:45.220Z,118.29
2023-02-19T05:46:14.294Z,118.01
2023-02-19T05:48:41.431Z,117.89
2023-02-19T05:51:14.284Z,118.01
2023-02-19T05:53:41.490Z,117.42
2023-02-19T05:56:26.424Z,117.34
2023-02-19T05:58:54.436Z,117.36
2023-02-19T06:01:22.799Z,117.27
2023-02-19T06:03:49.653Z,117.66
2023-02-19T06:06:18.491Z,117.43
2023-02-19T06:08:45.369Z,117.43
2023-02-19T06:11:12.537Z,117.34
2023-02-19T06:13:39.359Z,117.12
2023-02-19T06:16:07.540Z,117.30
2023-02-19T06:18:35.033Z,116.93
2023-02-19T06:21:06.590Z,117.25
2023-02-19T06:23:33.377Z,117.41
2023-02-19T06:26:12.637Z,117.46
2023-02-19T06:28:40.661Z,116.99
2023-02-19T06:31:08.890Z,117.20
2023-02-19T06:33:36.306Z,117.27
2023-02-19T06:36:04.412Z,116.47
2023-02-19T06:38:31.109Z,116.28
2023-02-19T06:41:02.501Z,116.51
2023-02-19T06:43:29.942Z,118.35
2023-02-19T06:45:59.903Z,116.49
2023-02-19T06:48:27.905Z,116.28
2023-02-19T06:50:54.693Z,115.90
2023-02-19T06:53:22.959Z,116.16
2023-02-19T06:56:07.500Z,115.80
2023-02-19T06:58:34.351Z,115.40
2023-02-19T07:01:01.389Z,115.89
2023-02-19T07:03:28.225Z,115.27
2023-02-19T07:05:55.183Z,114.54
2023-02-19T07:08:21.838Z,113.98
2023-02-19T07:10:56.564Z,113.84
2023-02-19T07:13:24.396Z,113.65
2023-02-19T07:15:52.306Z,113.50
2023-02-19T07:18:19.419Z,113.21
2023-02-19T07:20:46.133Z,112.67
2023-02-19T07:23:12.904Z,112.76
2023-02-19T07:25:40.027Z,112.51
2023-02-19T07:28:07.588Z,112.50
2023-02-19T07:30:34.960Z,112.94
2023-02-19T07:33:01.764Z,112.90
2023-02-19T07:35:29.138Z,113.09
2023-02-19T07:37:55.967Z,113.06
2023-02-19T07:40:22.700Z,112.67
2023-02-19T07:42:49.413Z,111.97
2023-02-19T07:45:16.187Z,111.77
2023-02-19T07:47:43.564Z,109.89
2023-02-19T07:50:11.842Z,108.91
2023-02-19T07:52:39.755Z,107.87
2023-02-19T07:55:06.892Z,107.17
2023-02-19T07:57:33.669Z,106.83
2023-02-19T08:00:00.478Z,106.21
2023-02-19T08:02:45.850Z,105.15
2023-02-19T08:05:13.860Z,103.97
2023-02-19T08:07:40.640Z,103.16
2023-02-19T08:10:26.582Z,103.22
2023-02-19T08:13:19.055Z,102.77
2023-02-19T08:15:47.221Z,102.41
2023-02-19T08:18:15.303Z,101.78
2023-02-19T08:20:42.884Z,100.64
2023-02-19T08:23:10.169Z,100.12
2023-02-19T08:25:41.150Z,100.14
2023-02-19T08:28:10.559Z,97.73
2023-02-19T08:30:39.058Z,98.30
2023-02-19T08:33:07.552Z,95.19
2023-02-19T08:35:36.453Z,95.33
2023-02-19T08:38:04.261Z,94.77
2023-02-19T08:40:32.019Z,95.18
2023-02-19T08:43:06.930Z,95.60
2023-02-19T08:45:34.004Z,94.79
2023-02-19T08:48:00.844Z,95.21
2023-02-19T08:50:28.267Z,94.11
2023-02-19T08:52:55.048Z,93.75
2023-02-19T08:55:22.076Z,91.54
2023-02-19T08:57:50.585Z,90.28
2023-02-19T09:00:18.119Z,89.24
2023-02-19T09:02:45.193Z,88.36
2023-02-19T09:05:12.717Z,87.39
2023-02-19T09:07:40.402Z,87.25
2023-02-19T09:10:08.389Z,86.75
2023-02-19T09:12:35.219Z,83.01
2023-02-19T09:15:01.953Z,81.08
2023-02-19T09:17:28.654Z,79.44
2023-02-19T09:19:56.647Z,75.67
2023-02-19T09:22:23.380Z,73.38
2023-02-19T09:24:50.179Z,71.75
2023-02-19T09:27:18.484Z,69.67
2023-02-19T09:29:45.614Z,68.94
2023-02-19T09:32:12.931Z,66.70
2023-02-19T09:34:39.799Z,68.13
2023-02-19T09:37:07.174Z,64.25
2023-02-19T09:39:34.736Z,55.84
2023-02-19T09:42:09.258Z,58.21
2023-02-19T09:44:40.048Z,48.67
2023-02-19T09:47:31.942Z,47.26
2023-02-19T09:50:10.065Z,46.21
2023-02-19T09:52:40.946Z,55.53
2023-02-19T09:55:19.570Z,58.83
2023-02-19T09:57:47.114Z,55.04
2023-02-19T10:00:24.526Z,56.95
2023-02-19T10:03:02.756Z,54.20
2023-02-19T10:05:30.161Z,55.02
2023-02-19T10:07:58.209Z,55.64
2023-02-19T10:10:32.994Z,61.26
2023-02-19T10:13:15.087Z,63.89
2023-02-19T10:16:00.539Z,62.29
2023-02-19T10:18:30.631Z,62.08
2023-02-19T10:20:58.152Z,61.11
2023-02-19T10:23:26.296Z,63.01
2023-02-19T10:25:57.871Z,64.48
2023-02-19T10:28:34.515Z,64.05
2023-02-19T10:31:04.474Z,62.47
2023-02-19T10:33:31.377Z,50.93
2023-02-19T10:36:19.589Z,51.02
2023-02-19T10:38:47.905Z,65.17
2023-02-19T10:41:17.889Z,66.49
2023-02-19T10:43:54.340Z,61.03
2023-02-19T10:46:30.505Z,62.49
2023-02-19T10:49:00.766Z,64.29
2023-02-19T10:51:37.288Z,62.37
2023-02-19T10:54:07.467Z,57.07
2023-02-19T10:56:34.404Z,55.86
2023-02-19T10:59:19.221Z,56.74
2023-02-19T11:01:58.268Z,57.24
2023-02-19T11:04:27.865Z,58.91
2023-02-19T11:06:54.876Z,57.32
2023-02-19T11:09:27.152Z,58.95
2023-02-19T11:11:56.089Z,56.03
2023-02-19T11:14:24.894Z,56.25
2023-02-19T11:16:56.491Z,56.03
2023-02-19T11:19:24.917Z,54.50
2023-02-19T11:21:52.725Z,51.62
2023-02-19T11:24:37.351Z,50.32
2023-02-19T11:27:06.681Z,51.08
2023-02-19T11:29:37.230Z,53.22
2023-02-19T11:32:26.861Z,49.79
2023-02-19T11:35:14.541Z,49.44
2023-02-19T11:38:01.552Z,48.03
2023-02-19T11:40:37.813Z,46.05
2023-02-19T11:43:10.680Z,48.55
2023-02-19T11:45:48.513Z,45.88
2023-02-19T11:48:32.506Z,46.77
2023-02-19T11:51:12.710Z,47.16
2023-02-19T11:53:49.653Z,47.14
2023-02-19T11:56:18.710Z,46.42
2023-02-19T11:59:14.512Z,45.45
2023-02-19T12:02:23.408Z,45.77
2023-02-19T12:05:05.602Z,43.17
2023-02-19T12:07:35.211Z,43.61
2023-02-19T12:10:14.210Z,44.80
2023-02-19T12:13:19.458Z,45.77
2023-02-19T12:16:14.359Z,46.07
2023-02-19T12:19:16.743Z,45.13
2023-02-19T12:22:05.513Z,48.52
2023-02-19T12:24:54.155Z,48.33
2023-02-19T12:27:21.493Z,48.64
2023-02-19T12:30:31.632Z,51.19
2023-02-19T12:33:29.375Z,52.58
2023-02-19T12:36:13.956Z,51.04
2023-02-19T12:38:47.916Z,52.65
2023-02-19T12:41:25.304Z,51.73
2023-02-19T12:43:57.589Z,51.94
2023-02-19T12:46:51.976Z,52.54
2023-02-19T12:49:39.359Z,53.03
2023-02-19T12:52:23.080Z,49.82
2023-02-19T12:54:55.886Z,49.58
2023-02-19T12:57:35.305Z,49.93
2023-02-19T13:00:16.373Z,48.93
2023-02-19T13:02:56.502Z,46.47
2023-02-19T13:05:42.180Z,48.02
2023-02-19T13:08:34.752Z,49.44
2023-02-19T13:11:16.458Z,49.95
2023-02-19T13:14:18.411Z,47.86
2023-02-19T13:16:50.803Z,47.50
2023-02-19T13:19:17.602Z,46.82
2023-02-19T13:22:10.163Z,47.15
2023-02-19T13:24:42.735Z,46.09
2023-02-19T13:27:21.427Z,46.99
2023-02-19T13:30:22.761Z,49.68
2023-02-19T13:33:00.804Z,50.97
2023-02-19T13:35:57.606Z,50.50
2023-02-19T13:38:24.580Z,51.24
2023-02-19T13:40:58.038Z,55.20
2023-02-19T13:43:28.708Z,53.17
2023-02-19T13:45:59.575Z,52.53
2023-02-19T13:48:30.512Z,53.92
2023-02-19T13:51:12.954Z,51.84
2023-02-19T13:53:45.949Z,51.06
2023-02-19T13:56:37.013Z,48.41
2023-02-19T13:59:25.081Z,48.67
2023-02-19T14:01:51.940Z,47.19
2023-02-19T14:04:41.968Z,46.54
2023-02-19T14:07:08.570Z,45.63
2023-02-19T14:09:41.000Z,46.21
2023-02-19T14:12:07.697Z,45.72
2023-02-19T14:14:49.491Z,43.87
2023-02-19T14:17:42.572Z,45.42
2023-02-19T14:20:09.169Z,46.52
2023-02-19T14:22:45.055Z,47.57
2023-02-19T14:25:27.232Z,48.66
2023-02-19T14:28:17.136Z,48.02
2023-02-19T14:30:57.494Z,49.38
2023-02-19T14:33:33.229Z,49.39
2023-02-19T14:36:20.202Z,49.08
2023-02-19T14:38:57.155Z,49.36
2023-02-19T14:41:24.812Z,47.76
2023-02-19T14:43:54.303Z,49.24
2023-02-19T14:46:29.995Z,50.05
2023-02-19T14:49:03.140Z,50.05
2023-02-19T14:51:44.309Z,51.09
2023-02-19T14:54:17.490Z,55.74
2023-02-19T14:56:48.656Z,56.49
2023-02-19T14:59:29.024Z,58.70
2023-02-19T15:01:56.654Z,59.93
2023-02-19T15:04:26.151Z,59.21
2023-02-19T15:06:56.645Z,62.61
2023-02-19T15:09:31.081Z,65.95
2023-02-19T15:11:58.486Z,67.43
2023-02-19T15:14:28.677Z,65.42
2023-02-19T15:17:00.556Z,64.92
2023-02-19T15:19:29.263Z,66.81
2023-02-19T15:21:56.252Z,64.15
2023-02-19T15:24:23.064Z,62.26
2023-02-19T15:26:54.723Z,62.75
2023-02-19T15:29:24.201Z,61.85
2023-02-19T15:31:57.526Z,65.30
2023-02-19T15:34:26.499Z,61.89
2023-02-19T15:36:58.484Z,63.50
2023-02-19T15:39:30.843Z,65.91
2023-02-19T15:42:00.714Z,63.15
2023-02-19T15:44:33.344Z,63.82
2023-02-19T15:47:25.319Z,64.08
2023-02-19T15:49:59.662Z,64.83
2023-02-19T15:52:50.338Z,65.91
2023-02-19T15:55:16.901Z,66.07
2023-02-19T15:57:48.800Z,67.69
2023-02-19T16:00:47.087Z,67.71
2023-02-19T16:03:22.129Z,67.73
2023-02-19T16:06:15.017Z,67.50
2023-02-19T16:09:02.449Z,66.50
2023-02-19T16:11:47.935Z,67.39
2023-02-19T16:14:34.156Z,70.08
2023-02-19T16:17:10.022Z,67.49
2023-02-19T16:19:52.963Z,68.27
2023-02-19T16:22:23.472Z,68.14
2023-02-19T16:24:54.026Z,68.31
2023-02-19T16:27:39.907Z,70.61
2023-02-19T16:30:29.963Z,72.64
2023-02-19T16:33:33.000Z,71.71
2023-02-19T16:36:21.841Z,72.99
2023-02-19T16:39:06.907Z,73.80
2023-02-19T16:41:34.872Z,74.45
2023-02-19T16:44:06.501Z,75.54
2023-02-19T16:46:33.344Z,75.26
2023-02-19T16:49:00.719Z,80.90
2023-02-19T16:51:28.178Z,80.90
2023-02-19T16:53:55.300Z,80.73
2023-02-19T16:56:23.551Z,80.98
2023-02-19T16:58:50.927Z,80.06
2023-02-19T17:01:19.245Z,81.65
2023-02-19T17:03:47.946Z,85.16
2023-02-19T17:06:15.702Z,85.43
2023-02-19T17:08:44.259Z,83.08
2023-02-19T17:11:14.847Z,80.47
2023-02-19T17:13:42.866Z,81.20
2023-02-19T17:16:31.907Z,84.59
2023-02-19T17:18:59.200Z,84.73
2023-02-19T17:21:28.406Z,84.39
2023-02-19T17:23:56.720Z,83.46
2023-02-19T17:26:29.829Z,82.24
2023-02-19T17:28:57.380Z,84.00
2023-02-19T17:31:24.436Z,83.12
2023-02-19T17:33:52.043Z,83.21
2023-02-19T17:36:27.855Z,83.07
2023-02-19T17:38:55.103Z,84.12
2023-02-19T17:41:21.917Z,85.39
2023-02-19T17:43:50.367Z,85.38
2023-02-19T17:46:26.240Z,86.16
2023-02-19T17:48:53.922Z,86.03
2023-02-19T17:51:21.125Z,85.93
2023-02-19T17:53:47.947Z,85.16
2023-02-19T17:56:23.558Z,85.97
2023-02-19T17:58:50.395Z,86.75
2023-02-19T18:01:17.307Z,87.15
2023-02-19T18:03:44.458Z,88.23
2023-02-19T18:06:11.597Z,88.88
2023-02-19T18:08:38.746Z,89.47
2023-02-19T18:11:06.795Z,90.09
2023-02-19T18:13:33.637Z,91.02
2023-02-19T18:16:00.434Z,91.57
2023-02-19T18:18:27.257Z,92.69
2023-02-19T18:20:54.364Z,92.44
2023-02-19T18:23:21.179Z,93.49
2023-02-19T18:25:47.934Z,93.77
2023-02-19T18:28:15.146Z,95.17
2023-02-19T18:30:42.129Z,96.55
2023-02-19T18:33:10.864Z,97.61
2023-02-19T18:35:38.513Z,98.33
2023-02-19T18:38:05.360Z,98.90
2023-02-19T18:40:32.058Z,99.67
2023-02-19T18:42:58.948Z,100.07
2023-02-19T18:45:26.235Z,100.18
2023-02-19T18:47:53.045Z,100.83
2023-02-19T18:50:19.978Z,101.16
2023-02-19T18:52:47.124Z,100.94
2023-02-19T18:55:13.976Z,101.53
2023-02-19T18:57:40.745Z,101.25
2023-02-19T19:00:08.448Z,101.51
2023-02-19T19:02:48.455Z,101.73
2023-02-19T19:05:23.673Z,101.61
2023-02-19T19:07:52.401Z,101.39
2023-02-19T19:10:19.794Z,101.51
2023-02-19T19:12:47.139Z,102.12
2023-02-19T19:15:17.074Z,101.80
2023-02-19T19:17:44.923Z,102.54
2023-02-19T19:20:12.999Z,102.60
2023-02-19T19:22:39.887Z,102.99
2023-02-19T19:25:07.415Z,102.68
2023-02-19T19:27:37.014Z,102.61
2023-02-19T19:30:04.837Z,103.67
2023-02-19T19:32:31.596Z,103.64
2023-02-19T19:34:58.303Z,104.53
2023-02-19T19:37:28.342Z,105.00
2023-02-19T19:39:56.237Z,105.18
2023-02-19T19:42:23.266Z,105.19
2023-02-19T19:44:50.052Z,105.72
2023-02-19T19:47:17.023Z,105.90
2023-02-19T19:49:47.138Z,106.16
2023-02-19T19:52:14.773Z,106.15
2023-02-19T19:54:43.139Z,106.35
2023-02-19T19:57:10.840Z,106.23
2023-02-19T19:59:39.326Z,106.72
2023-02-19T20:02:07.669Z,107.26
2023-02-19T20:04:35.015Z,106.96
2023-02-19T20:07:02.404Z,107.14
2023-02-19T20:09:29.404Z,107.40
2023-02-19T20:11:56.938Z,107.46
2023-02-19T20:14:25.200Z,107.17
2023-02-19T20:16:53.220Z,107.72
2023-02-19T20:19:20.833Z,108.07
2023-02-19T20:21:53.209Z,107.86
2023-02-19T20:24:26.259Z,108.48
2023-02-19T20:27:02.080Z,108.40
2023-02-19T20:29:31.431Z,109.01
2023-02-19T20:32:00.113Z,109.11
2023-02-19T20:34:27.772Z,108.87
2023-02-19T20:36:55.279Z,109.22
2023-02-19T20:39:22.428Z,109.78
2023-02-19T20:41:51.148Z,110.58
2023-02-19T20:44:18.552Z,110.81
2023-02-19T20:46:48.185Z,110.47
2023-02-19T20:49:17.582Z,110.86
2023-02-19T20:51:59.267Z,111.36
2023-02-19T20:54:32.504Z,111.42
2023-02-19T20:57:02.218Z,111.76
2023-02-19T20:59:34.726Z,112.39
2023-02-19T21:02:08.734Z,112.48
2023-02-19T21:04:38.449Z,112.80
2023-02-19T21:07:05.191Z,113.09
2023-02-19T21:09:32.373Z,113.02
2023-02-19T21:11:59.957Z,113.87
2023-02-19T21:14:27.168Z,114.03
2023-02-19T21:16:53.876Z,114.06
2023-02-19T21:19:21.860Z,114.22
2023-02-19T21:21:48.651Z,114.08
2023-02-19T21:24:15.758Z,114.05
2023-02-19T21:26:44.436Z,114.31
2023-02-19T21:29:19.234Z,114.36
2023-02-19T21:31:48.597Z,114.39
2023-02-19T21:34:21.224Z,114.71
2023-02-19T21:36:48.157Z,114.90
2023-02-19T21:39:17.635Z,114.97
2023-02-19T21:41:44.733Z,114.97
2023-02-19T21:44:11.870Z,115.46
2023-02-19T21:46:38.946Z,115.88
2023-02-19T21:49:05.925Z,116.02
2023-02-19T21:51:36.165Z,115.64
2023-02-19T21:54:04.296Z,115.58
2023-02-19T21:56:36.092Z,115.57
2023-02-19T21:59:03.354Z,116.02
2023-02-19T22:01:35.540Z,115.73
2023-02-19T22:04:02.197Z,115.86
2023-02-19T22:06:30.924Z,115.91
2023-02-19T22:08:58.897Z,116.06
2023-02-19T22:11:25.988Z,115.86
2023-02-19T22:13:54.126Z,115.73
2023-02-19T22:16:21.167Z,115.15
2023-02-19T22:18:53.697Z,115.48
2023-02-19T22:21:22.494Z,115.04
2023-02-19T22:23:51.231Z,114.67
2023-02-19T22:26:18.814Z,114.79
2023-02-19T22:28:47.683Z,114.74
2023-02-19T22:31:19.501Z,114.96
2023-02-19T22:33:46.410Z,114.97
2023-02-19T22:36:25.249Z,114.85
2023-02-19T22:38:52.929Z,114.38
2023-02-19T22:41:21.066Z,114.30
2023-02-19T22:43:48.485Z,114.14
2023-02-19T22:46:17.594Z,114.38
2023-02-19T22:48:44.355Z,114.53
2023-02-19T22:51:13.277Z,114.70
2023-02-19T22:53:47.827Z,114.72
2023-02-19T22:56:15.779Z,114.93
2023-02-19T22:58:42.619Z,114.73
2023-02-19T23:01:10.702Z,114.51
2023-02-19T23:03:58.455Z,115.06
2023-02-19T23:06:26.706Z,115.13
2023-02-19T23:08:55.662Z,115.15
2023-02-19T23:11:25.105Z,115.12
2023-02-19T23:13:52.230Z,115.04
2023-02-19T23:16:19.442Z,114.67
2023-02-19T23:18:46.292Z,114.47
2023-02-19T23:21:13.594Z,114.83
2023-02-19T23:23:44.610Z,114.95
2023-02-19T23:26:12.787Z,114.99
2023-02-19T23:28:40.846Z,114.74
2023-02-19T23:31:07.673Z,114.51
2023-02-19T23:33:34.995Z,114.74
2023-02-19T23:36:01.697Z,115.01
2023-02-19T23:38:28.427Z,114.89
2023-02-19T23:40:55.256Z,114.88
2023-02-19T23:43:22.031Z,114.77
2023-02-19T23:45:48.848Z,114.46
2023-02-19T23:48:15.775Z,114.21
2023-02-19T23:50:42.496Z,114.12
2023-02-19T23:53:09.815Z,114.19
2023-02-19T23:55:36.541Z,113.87
2023-02-19T23:58:03.422Z,113.64
